createdAt,value
2022-09-12T00:02:09.443Z,14.02
2022-09-12T00:04:38.175Z,13.94
2022-09-12T00:07:06.929Z,14.00
2022-09-12T00:09:35.573Z,13.73
2022-09-12T00:12:04.456Z,14.00
2022-09-12T00:14:33.241Z,13.92
2022-09-12T00:17:02.273Z,13.92
2022-09-12T00:19:32.367Z,13.87
2022-09-12T00:22:01.650Z,13.82
2022-09-12T00:24:30.517Z,13.89
2022-09-12T00:26:59.137Z,13.89
2022-09-12T00:29:28.329Z,13.75
2022-09-12T00:31:57.027Z,13.83
2022-09-12T00:34:25.709Z,13.87
2022-09-12T00:36:56.325Z,13.80
2022-09-12T00:39:25.351Z,13.53
2022-09-12T00:41:56.547Z,13.77
2022-09-12T00:44:48.703Z,13.74
2022-09-12T00:47:24.698Z,13.82
2022-09-12T00:49:57.459Z,13.71
2022-09-12T00:52:30.879Z,13.73
2022-09-12T00:55:03.019Z,13.71
2022-09-12T00:57:34.331Z,13.63
2022-09-12T01:00:09.983Z,13.63
2022-09-12T01:02:38.668Z,13.59
2022-09-12T01:05:08.510Z,13.60
2022-09-12T01:07:40.378Z,13.62
2022-09-12T01:10:10.529Z,13.55
2022-09-12T01:12:41.364Z,13.56
2022-09-12T01:15:11.238Z,13.50
2022-09-12T01:17:50.689Z,13.53
2022-09-12T01:20:39.094Z,13.50
2022-09-12T01:23:52.744Z,13.53
2022-09-12T01:26:55.152Z,13.45
2022-09-12T01:29:37.150Z,13.42
2022-09-12T01:32:10.396Z,13.42
2022-09-12T01:34:43.385Z,13.38
2022-09-12T01:37:17.106Z,13.33
2022-09-12T01:39:52.329Z,13.20
2022-09-12T01:42:25.163Z,13.31
2022-09-12T01:44:58.086Z,13.21
2022-09-12T01:47:34.070Z,13.25
2022-09-12T01:50:06.680Z,13.23
2022-09-12T01:52:40.647Z,13.24
2022-09-12T01:55:12.846Z,13.23
2022-09-12T01:57:44.506Z,13.21
2022-09-12T02:00:14.995Z,13.18
2022-09-12T02:02:50.652Z,13.22
2022-09-12T02:05:22.099Z,13.18
2022-09-12T02:07:53.056Z,13.11
2022-09-12T02:10:24.185Z,13.11
2022-09-12T02:12:55.445Z,13.12
2022-09-12T02:15:27.715Z,13.11
2022-09-12T02:17:59.682Z,13.02
2022-09-12T02:20:47.459Z,13.04
2022-09-12T02:23:20.550Z,13.00
2022-09-12T02:25:52.807Z,12.94
2022-09-12T02:28:25.457Z,12.92
2022-09-12T02:31:01.448Z,12.88
2022-09-12T02:33:36.764Z,12.89
2022-09-12T02:36:14.358Z,12.80
2022-09-12T02:38:46.366Z,12.80
2022-09-12T02:41:17.155Z,12.73
2022-09-12T02:43:46.255Z,12.72
2022-09-12T02:46:17.149Z,12.64
2022-09-12T02:48:47.228Z,12.66
2022-09-12T02:51:18.285Z,12.62
2022-09-12T02:53:50.633Z,12.63
2022-09-12T02:56:25.384Z,12.62
2022-09-12T02:58:54.379Z,12.64
2022-09-12T03:01:34.691Z,12.49
2022-09-12T03:04:20.802Z,12.58
2022-09-12T03:06:53.919Z,12.58
2022-09-12T03:09:28.819Z,12.66
2022-09-12T03:12:05.355Z,12.62
2022-09-12T03:14:49.798Z,12.57
2022-09-12T03:17:24.978Z,12.52
2022-09-12T03:20:00.719Z,12.43
2022-09-12T03:22:32.692Z,12.46
2022-09-12T03:25:06.620Z,12.35
2022-09-12T03:27:38.064Z,12.39
2022-09-12T03:30:08.387Z,12.36
2022-09-12T03:32:44.979Z,12.33
2022-09-12T03:35:19.785Z,12.32
2022-09-12T03:37:52.524Z,12.29
2022-09-12T03:40:21.530Z,12.33
2022-09-12T03:42:50.260Z,12.37
2022-09-12T03:45:19.006Z,12.35
2022-09-12T03:47:48.661Z,12.35
2022-09-12T03:50:18.757Z,12.22
2022-09-12T03:52:47.443Z,12.30
2022-09-12T03:55:17.513Z,12.32
2022-09-12T03:57:46.580Z,12.34
2022-09-12T04:00:19.510Z,12.30
2022-09-12T04:02:48.515Z,12.25
2022-09-12T04:05:18.617Z,12.24
2022-09-12T04:07:47.269Z,12.24
2022-09-12T04:10:16.449Z,12.20
2022-09-12T04:12:45.176Z,12.18
2022-09-12T04:15:13.843Z,12.05
2022-09-12T04:17:42.498Z,12.05
2022-09-12T04:20:11.522Z,11.95
2022-09-12T04:22:41.521Z,12.00
2022-09-12T04:25:11.676Z,12.03
2022-09-12T04:27:40.452Z,12.10
2022-09-12T04:30:10.251Z,12.09
2022-09-12T04:32:39.052Z,12.03
2022-09-12T04:35:08.034Z,12.09
2022-09-12T04:37:36.686Z,11.91
2022-09-12T04:40:07.605Z,11.97
2022-09-12T04:42:36.319Z,11.89
2022-09-12T04:45:06.248Z,11.89
2022-09-12T04:47:35.397Z,11.79
2022-09-12T04:50:04.468Z,11.81
2022-09-12T04:52:33.127Z,11.84
2022-09-12T04:55:01.811Z,11.84
2022-09-12T04:57:31.974Z,11.84
2022-09-12T05:00:06.493Z,11.79
2022-09-12T05:02:35.936Z,11.87
2022-09-12T05:05:05.017Z,11.83
2022-09-12T05:07:33.704Z,11.78
2022-09-12T05:10:03.397Z,11.54
2022-09-12T05:12:33.945Z,11.80
2022-09-12T05:15:04.670Z,11.70
2022-09-12T05:17:33.345Z,11.69
2022-09-12T05:20:02.054Z,11.66
2022-09-12T05:22:30.851Z,11.61
2022-09-12T05:24:59.523Z,11.52
2022-09-12T05:27:28.181Z,11.61
2022-09-12T05:29:59.058Z,11.58
2022-09-12T05:32:27.662Z,11.65
2022-09-12T05:34:56.315Z,11.68
2022-09-12T05:37:25.048Z,11.62
2022-09-12T05:39:53.745Z,11.62
2022-09-12T05:42:23.467Z,11.44
2022-09-12T05:44:52.080Z,11.55
2022-09-12T05:47:22.148Z,11.48
2022-09-12T05:49:51.460Z,11.40
2022-09-12T05:52:20.278Z,11.43
2022-09-12T05:54:49.677Z,11.41
2022-09-12T05:57:19.088Z,11.20
2022-09-12T05:59:48.726Z,11.42
2022-09-12T06:02:17.416Z,11.49
2022-09-12T06:04:47.758Z,11.49
2022-09-12T06:07:16.453Z,11.30
2022-09-12T06:09:45.440Z,11.31
2022-09-12T06:12:14.152Z,11.27
2022-09-12T06:14:43.411Z,11.22
2022-09-12T06:17:12.097Z,11.32
2022-09-12T06:19:40.732Z,11.37
2022-09-12T06:22:10.975Z,11.40
2022-09-12T06:24:39.640Z,11.49
2022-09-12T06:27:08.295Z,11.62
2022-09-12T06:29:37.219Z,11.62
2022-09-12T06:32:06.927Z,11.50
2022-09-12T06:34:36.488Z,11.59
2022-09-12T06:37:05.379Z,11.56
2022-09-12T06:39:36.576Z,11.64
2022-09-12T06:42:05.567Z,11.63
2022-09-12T06:44:34.275Z,11.43
2022-09-12T06:47:03.339Z,11.49
2022-09-12T06:49:32.067Z,11.56
2022-09-12T06:52:01.057Z,11.59
2022-09-12T06:54:29.726Z,11.77
2022-09-12T06:56:59.842Z,11.83
2022-09-12T06:59:28.460Z,11.94
2022-09-12T07:01:57.354Z,12.09
2022-09-12T07:04:26.166Z,12.09
2022-09-12T07:06:54.778Z,12.09
2022-09-12T07:09:23.650Z,12.13
2022-09-12T07:11:52.306Z,12.20
2022-09-12T07:14:22.449Z,12.18
2022-09-12T07:16:51.150Z,12.21
2022-09-12T07:19:19.959Z,12.44
2022-09-12T07:21:48.838Z,12.53
2022-09-12T07:24:17.495Z,12.72
2022-09-12T07:26:46.152Z,12.84
2022-09-12T07:32:07.988Z,13.18
2022-09-12T07:34:37.223Z,13.14
2022-09-12T07:37:06.061Z,13.28
2022-09-12T07:39:34.732Z,13.45
2022-09-12T07:42:03.383Z,13.53
2022-09-12T07:44:32.054Z,13.68
2022-09-12T07:47:02.230Z,13.86
2022-09-12T07:49:32.293Z,13.84
2022-09-12T07:52:00.929Z,13.92
2022-09-12T07:54:29.581Z,13.97
2022-09-12T07:56:58.299Z,14.14
2022-09-12T07:59:50.882Z,14.21
2022-09-12T08:02:17.847Z,14.38
2022-09-12T08:04:49.184Z,14.43
2022-09-12T08:07:19.168Z,14.58
2022-09-12T08:09:48.183Z,14.77
2022-09-12T08:12:17.718Z,14.77
2022-09-12T08:14:46.504Z,15.00
2022-09-12T08:17:15.474Z,15.08
2022-09-12T08:19:44.889Z,15.33
2022-09-12T08:22:15.370Z,15.43
2022-09-12T08:24:44.517Z,15.47
2022-09-12T08:27:13.436Z,15.61
2022-09-12T08:29:42.293Z,15.81
2022-09-12T08:32:11.333Z,15.89
2022-09-12T08:34:40.029Z,15.97
2022-09-12T08:37:08.708Z,16.11
2022-09-12T08:39:38.832Z,16.28
2022-09-12T08:42:08.105Z,16.39
2022-09-12T08:45:00.312Z,16.46
2022-09-12T08:47:31.725Z,16.59
2022-09-12T08:50:12.687Z,16.70
2022-09-12T08:52:50.347Z,16.77
2022-09-12T08:55:32.096Z,16.82
2022-09-12T08:58:01.601Z,16.85
2022-09-12T09:00:38.796Z,16.95
2022-09-12T09:03:38.165Z,16.95
2022-09-12T09:06:14.696Z,17.11
2022-09-12T09:08:58.694Z,17.25
2022-09-12T09:11:41.565Z,17.33
2022-09-12T09:14:36.715Z,17.42
2022-09-12T09:17:09.956Z,17.55
2022-09-12T09:19:48.789Z,17.59
2022-09-12T09:22:24.819Z,17.75
2022-09-12T09:24:56.712Z,17.87
2022-09-12T09:27:47.450Z,17.91
2022-09-12T09:30:17.948Z,18.03
2022-09-12T09:32:49.541Z,18.14
2022-09-12T09:35:20.530Z,18.28
2022-09-12T09:38:01.974Z,18.54
2022-09-12T09:40:39.522Z,18.76
2022-09-12T09:43:15.979Z,18.97
2022-09-12T09:45:47.394Z,19.08
2022-09-12T09:48:19.968Z,19.35
2022-09-12T09:50:50.049Z,19.62
2022-09-12T09:53:33.761Z,19.84
2022-09-12T09:56:07.065Z,20.12
2022-09-12T09:58:37.513Z,20.29
2022-09-12T10:01:07.632Z,20.52
2022-09-12T10:03:39.029Z,20.68
2022-09-12T10:06:09.932Z,20.91
2022-09-12T10:08:39.232Z,21.12
2022-09-12T10:11:16.530Z,21.19
2022-09-12T10:13:56.955Z,21.38
2022-09-12T10:16:27.976Z,21.50
2022-09-12T10:18:58.057Z,21.50
2022-09-12T10:21:30.836Z,21.55
2022-09-12T10:24:05.538Z,21.67
2022-09-12T10:26:36.964Z,21.86
2022-09-12T10:29:13.681Z,21.93
2022-09-12T10:31:46.683Z,22.06
2022-09-12T10:34:30.524Z,22.23
2022-09-12T10:37:04.755Z,22.34
2022-09-12T10:39:34.888Z,22.44
2022-09-12T10:42:05.450Z,22.39
2022-09-12T10:44:36.476Z,22.48
2022-09-12T10:47:22.385Z,22.62
2022-09-12T10:49:51.183Z,22.75
2022-09-12T10:52:23.411Z,22.97
2022-09-12T10:54:52.226Z,23.13
2022-09-12T10:57:51.120Z,23.21
2022-09-12T11:00:27.686Z,23.28
2022-09-12T11:03:06.829Z,23.44
2022-09-12T11:05:49.492Z,23.43
2022-09-12T11:08:45.167Z,23.47
2022-09-12T11:11:29.440Z,23.51
2022-09-12T11:14:08.830Z,23.59
2022-09-12T11:16:43.916Z,23.68
2022-09-12T11:19:31.303Z,23.76
2022-09-12T11:22:17.826Z,23.84
2022-09-12T11:25:03.408Z,23.66
2022-09-12T11:27:42.524Z,23.84
2022-09-12T11:30:13.613Z,24.01
2022-09-12T11:33:05.574Z,24.10
2022-09-12T11:35:35.384Z,24.23
2022-09-12T11:38:28.751Z,24.19
2022-09-12T11:41:01.359Z,24.24
2022-09-12T11:43:38.671Z,24.36
2022-09-12T11:46:14.135Z,24.42
2022-09-12T11:48:48.606Z,24.45
2022-09-12T11:51:20.829Z,24.53
2022-09-12T11:54:01.066Z,24.61
2022-09-12T11:56:29.918Z,24.72
2022-09-12T11:59:04.690Z,24.63
2022-09-12T12:01:41.309Z,24.73
2022-09-12T12:04:13.924Z,24.81
2022-09-12T12:06:50.234Z,24.82
2022-09-12T12:09:18.970Z,24.93
2022-09-12T12:11:51.613Z,24.89
2022-09-12T12:14:23.883Z,25.00
2022-09-12T12:16:53.080Z,25.08
2022-09-12T12:19:33.565Z,25.18
2022-09-12T12:22:10.044Z,25.16
2022-09-12T12:24:55.852Z,25.01
2022-09-12T12:27:26.472Z,24.98
2022-09-12T12:29:55.338Z,24.95
2022-09-12T12:32:26.019Z,25.07
2022-09-12T12:35:38.739Z,25.14
2022-09-12T12:38:28.097Z,25.10
2022-09-12T12:41:40.173Z,25.04
2022-09-12T12:44:42.080Z,25.07
2022-09-12T12:47:16.834Z,25.05
2022-09-12T12:49:52.829Z,25.02
2022-09-12T12:52:23.125Z,24.94
2022-09-12T12:54:54.929Z,24.86
2022-09-12T12:57:40.563Z,24.94
2022-09-12T13:00:28.207Z,25.01
2022-09-12T13:02:59.700Z,24.94
2022-09-12T13:05:30.391Z,25.01
2022-09-12T13:08:04.959Z,25.07
2022-09-12T13:10:33.953Z,25.01
2022-09-12T13:13:05.706Z,24.92
2022-09-12T13:15:52.024Z,25.01
2022-09-12T13:18:27.866Z,25.08
2022-09-12T13:21:02.840Z,24.99
2022-09-12T13:23:34.149Z,24.73
2022-09-12T13:26:03.825Z,24.67
2022-09-12T13:28:33.238Z,24.73
2022-09-12T13:31:07.205Z,24.69
2022-09-12T13:33:38.038Z,24.76
2022-09-12T13:36:25.166Z,24.76
2022-09-12T13:39:14.011Z,24.75
2022-09-12T13:42:05.031Z,24.72
2022-09-12T13:44:41.203Z,24.63
2022-09-12T13:47:12.102Z,24.66
2022-09-12T13:49:41.792Z,24.66
2022-09-12T13:52:17.069Z,24.76
2022-09-12T13:54:50.802Z,24.74
2022-09-12T13:57:34.396Z,24.69
2022-09-12T14:00:06.927Z,24.73
2022-09-12T14:02:37.549Z,24.78
2022-09-12T14:05:13.977Z,24.80
2022-09-12T14:07:54.443Z,24.84
2022-09-12T14:10:30.520Z,24.62
2022-09-12T14:13:00.104Z,24.66
2022-09-12T14:15:30.644Z,24.55
2022-09-12T14:18:01.275Z,24.51
2022-09-12T14:20:32.980Z,24.57
2022-09-12T14:23:03.613Z,24.52
2022-09-12T14:25:38.991Z,24.60
2022-09-12T14:28:07.841Z,24.58
2022-09-12T14:30:37.648Z,24.50
2022-09-12T14:33:18.265Z,24.43
2022-09-12T14:35:49.900Z,24.34
2022-09-12T14:38:27.471Z,24.32
2022-09-12T14:41:02.777Z,24.25
2022-09-12T14:43:33.160Z,24.22
2022-09-12T14:46:03.732Z,24.23
2022-09-12T14:48:34.861Z,24.21
2022-09-12T14:51:04.460Z,24.11
2022-09-12T14:53:34.737Z,24.06
2022-09-12T14:56:12.642Z,24.02
2022-09-12T14:58:42.642Z,23.93
2022-09-12T15:01:32.231Z,23.88
2022-09-12T15:04:01.003Z,23.77
2022-09-12T15:06:31.450Z,23.80
2022-09-12T15:09:01.439Z,23.69
2022-09-12T15:11:32.949Z,23.72
2022-09-12T15:14:08.265Z,23.70
2022-09-12T15:16:36.935Z,23.66
2022-09-12T15:19:05.619Z,23.68
2022-09-12T15:21:34.459Z,23.63
2022-09-12T15:24:03.587Z,23.60
2022-09-12T15:26:33.701Z,23.59
2022-09-12T15:29:03.349Z,23.51
2022-09-12T15:31:33.108Z,23.45
2022-09-12T15:34:03.127Z,23.44
2022-09-12T15:36:31.897Z,23.43
2022-09-12T15:39:00.597Z,23.37
2022-09-12T15:41:31.754Z,23.31
2022-09-12T15:44:02.157Z,23.34
2022-09-12T15:46:30.935Z,23.32
2022-09-12T15:48:59.978Z,23.29
2022-09-12T15:51:28.974Z,23.24
2022-09-12T15:53:57.765Z,23.23
2022-09-12T15:56:26.731Z,23.14
2022-09-12T15:58:59.232Z,23.19
2022-09-12T16:01:30.700Z,23.14
2022-09-12T16:03:59.570Z,23.14
2022-09-12T16:06:36.291Z,23.10
2022-09-12T16:09:05.880Z,23.11
2022-09-12T16:11:34.591Z,23.08
2022-09-12T16:14:05.596Z,23.05
2022-09-12T16:16:35.920Z,23.08
2022-09-12T16:19:05.160Z,23.06
2022-09-12T16:21:33.887Z,23.02
2022-09-12T16:24:02.967Z,23.02
2022-09-12T16:26:31.693Z,23.09
2022-09-12T16:29:00.703Z,22.98
2022-09-12T16:31:30.225Z,22.93
2022-09-12T16:34:00.288Z,22.86
2022-09-12T16:36:28.885Z,22.88
2022-09-12T16:38:57.519Z,22.84
2022-09-12T16:41:26.505Z,22.72
2022-09-12T16:43:55.687Z,22.72
2022-09-12T16:46:26.451Z,22.69
2022-09-12T16:48:57.308Z,22.62
2022-09-12T16:51:29.289Z,22.43
2022-09-12T16:53:58.195Z,22.41
2022-09-12T16:56:27.347Z,22.33
2022-09-12T16:58:56.256Z,22.22
2022-09-12T17:01:26.665Z,22.21
2022-09-12T17:03:56.618Z,22.14
2022-09-12T17:06:25.773Z,22.05
2022-09-12T17:08:57.210Z,22.04
2022-09-12T17:11:30.759Z,21.91
2022-09-12T17:14:04.940Z,21.79
2022-09-12T17:16:34.239Z,21.85
2022-09-12T17:19:03.134Z,21.81
2022-09-12T17:21:32.351Z,21.74
2022-09-12T17:24:03.517Z,21.66
2022-09-12T17:26:32.273Z,21.61
2022-09-12T17:29:01.424Z,21.41
2022-09-12T17:31:30.204Z,21.44
2022-09-12T17:33:59.535Z,21.47
2022-09-12T17:36:28.680Z,21.38
2022-09-12T17:38:57.378Z,21.40
2022-09-12T17:41:28.915Z,21.25
2022-09-12T17:43:58.821Z,21.26
2022-09-12T17:46:32.872Z,21.24
2022-09-12T17:49:02.210Z,21.14
2022-09-12T17:51:31.905Z,21.02
2022-09-12T17:54:02.293Z,20.89
2022-09-12T17:56:33.414Z,20.81
2022-09-12T17:59:02.533Z,20.72
2022-09-12T18:01:49.418Z,20.65
2022-09-12T18:04:19.910Z,20.60
2022-09-12T18:06:50.366Z,20.58
2022-09-12T18:09:20.480Z,20.47
2022-09-12T18:11:50.966Z,20.42
2022-09-12T18:14:20.282Z,20.34
2022-09-12T18:16:49.919Z,20.28
2022-09-12T18:19:18.903Z,20.25
2022-09-12T18:21:47.613Z,20.22
2022-09-12T18:24:16.777Z,20.09
2022-09-12T18:26:45.524Z,20.10
2022-09-12T18:29:17.221Z,20.03
2022-09-12T18:31:46.694Z,19.94
2022-09-12T18:34:15.546Z,19.85
2022-09-12T18:36:45.907Z,19.78
2022-09-12T18:39:15.032Z,19.72
2022-09-12T18:41:44.232Z,19.68
2022-09-12T18:44:13.347Z,19.65
2022-09-12T18:46:43.464Z,19.58
2022-09-12T18:49:12.344Z,19.52
2022-09-12T18:51:41.916Z,19.46
2022-09-12T18:54:14.227Z,19.38
2022-09-12T18:56:44.031Z,19.34
2022-09-12T18:59:14.844Z,19.34
2022-09-12T19:01:45.187Z,19.26
2022-09-12T19:04:16.305Z,19.21
2022-09-12T19:06:46.450Z,19.11
2022-09-12T19:09:16.962Z,19.07
2022-09-12T19:11:49.744Z,19.06
2022-09-12T19:14:20.542Z,19.14
2022-09-12T19:16:52.287Z,19.21
2022-09-12T19:19:21.566Z,19.19
2022-09-12T19:21:50.391Z,19.16
2022-09-12T19:24:19.182Z,19.16
2022-09-12T19:26:47.945Z,19.10
2022-09-12T19:29:16.875Z,19.10
2022-09-12T19:31:45.772Z,19.13
2022-09-12T19:34:16.319Z,19.03
2022-09-12T19:36:46.598Z,18.98
2022-09-12T19:39:16.253Z,18.95
2022-09-12T19:41:45.843Z,18.83
2022-09-12T19:44:15.176Z,18.76
2022-09-12T19:46:45.418Z,18.68
2022-09-12T19:49:15.654Z,18.55
2022-09-12T19:51:44.799Z,18.52
2022-09-12T19:54:13.618Z,18.43
2022-09-12T19:56:42.307Z,18.38
2022-09-12T19:59:11.569Z,18.34
2022-09-12T20:01:40.515Z,18.30
2022-09-12T20:04:09.531Z,18.26
2022-09-12T20:06:39.648Z,18.19
2022-09-12T20:09:08.499Z,18.14
2022-09-12T20:11:37.311Z,18.04
2022-09-12T20:14:06.158Z,17.95
2022-09-12T20:16:34.936Z,17.91
2022-09-12T20:19:07.045Z,17.92
2022-09-12T20:21:36.937Z,17.91
2022-09-12T20:24:08.709Z,17.82
2022-09-12T20:26:37.451Z,17.80
2022-09-12T20:29:07.580Z,17.71
2022-09-12T20:31:37.686Z,17.69
2022-09-12T20:34:07.197Z,17.62
2022-09-12T20:36:35.818Z,17.63
2022-09-12T20:39:04.824Z,17.63
2022-09-12T20:41:36.027Z,17.59
2022-09-12T20:44:04.729Z,17.54
2022-09-12T20:46:33.589Z,17.55
2022-09-12T20:49:02.371Z,17.61
2022-09-12T20:51:31.016Z,17.56
2022-09-12T20:54:01.456Z,17.48
2022-09-12T20:56:31.686Z,17.51
2022-09-12T20:59:01.900Z,17.43
2022-09-12T21:01:31.251Z,17.48
2022-09-12T21:04:00.722Z,17.48
2022-09-12T21:06:29.582Z,17.35
2022-09-12T21:09:00.611Z,17.21
2022-09-12T21:11:30.043Z,17.04
2022-09-12T21:13:58.913Z,17.09
2022-09-12T21:16:31.472Z,16.99
2022-09-12T21:19:02.324Z,16.96
2022-09-12T21:21:31.012Z,16.90
2022-09-12T21:24:02.608Z,16.89
2022-09-12T21:26:31.667Z,16.94
2022-09-12T21:29:00.357Z,16.81
2022-09-12T21:31:30.477Z,16.79
2022-09-12T21:33:59.175Z,16.71
2022-09-12T21:36:27.849Z,16.73
2022-09-12T21:38:59.024Z,16.68
2022-09-12T21:41:28.735Z,16.67
2022-09-12T21:43:57.524Z,16.61
2022-09-12T21:46:26.434Z,16.63
2022-09-12T21:48:56.502Z,16.63
2022-09-12T21:51:25.213Z,16.64
2022-09-12T21:53:54.616Z,16.56
2022-09-12T21:56:23.237Z,16.52
2022-09-12T21:58:51.878Z,16.53
2022-09-12T22:01:20.693Z,16.48
2022-09-12T22:03:50.103Z,16.52
2022-09-12T22:06:22.526Z,16.49
2022-09-12T22:08:52.521Z,16.48
2022-09-12T22:11:22.852Z,16.46
2022-09-12T22:13:51.513Z,16.50
2022-09-12T22:16:20.342Z,16.45
2022-09-12T22:18:50.568Z,16.30
2022-09-12T22:21:24.213Z,16.34
2022-09-12T22:24:25.233Z,16.36
2022-09-12T22:26:53.955Z,16.18
2022-09-12T22:29:22.896Z,16.24
2022-09-12T22:31:51.540Z,16.16
2022-09-12T22:34:20.375Z,16.16
2022-09-12T22:36:50.457Z,16.16
2022-09-12T22:39:19.094Z,16.22
2022-09-12T22:41:47.956Z,16.12
2022-09-12T22:44:17.686Z,16.00
2022-09-12T22:46:46.366Z,15.95
2022-09-12T22:49:15.304Z,15.96
2022-09-12T22:51:43.956Z,15.82
2022-09-12T22:54:14.246Z,15.83
2022-09-12T22:56:42.918Z,15.78
2022-09-12T22:59:11.571Z,15.78
2022-09-12T23:01:40.227Z,15.76
2022-09-12T23:04:08.852Z,15.70
2022-09-12T23:06:37.618Z,15.57
2022-09-12T23:09:06.384Z,15.54
2022-09-12T23:11:36.606Z,15.53
2022-09-12T23:14:05.473Z,15.49
2022-09-12T23:16:35.421Z,15.57
2022-09-12T23:19:04.209Z,15.52
2022-09-12T23:21:33.097Z,15.44
2022-09-12T23:24:01.794Z,15.36
2022-09-12T23:26:30.433Z,15.36
2022-09-12T23:29:01.868Z,15.32
2022-09-12T23:31:32.577Z,15.37
2022-09-12T23:34:02.817Z,15.38
2022-09-12T23:36:31.776Z,15.37
2022-09-12T23:39:00.413Z,15.42
2022-09-12T23:41:29.382Z,15.40
2022-09-12T23:43:58.322Z,15.39
2022-09-12T23:46:28.450Z,15.36
2022-09-12T23:48:57.073Z,15.32
2022-09-12T23:51:25.830Z,15.35
2022-09-12T23:53:54.520Z,15.35
2022-09-12T23:56:23.184Z,15.19
2022-09-12T23:58:51.958Z,15.46
